sensor_id;sensor_type;location;lat;lon;timestamp;pressure;altitude;pressure_sealevel;temperature;humidity
10992;BME280;5549;47.028;15.514;2023-11-21T00:00:46;96031.91;;;9.25;67.99
10992;BME280;5549;47.028;15.514;2023-11-21T00:03:14;96033.88;;;9.33;67.26
10992;BME280;5549;47.028;15.514;2023-11-21T00:05:42;96036.63;;;9.31;66.78
10992;BME280;5549;47.028;15.514;2023-11-21T00:08:09;96036.63;;;9.41;66.02
10992;BME280;5549;47.028;15.514;2023-11-21T00:10:37;96033.47;;;9.47;66.25
10992;BME280;5549;47.028;15.514;2023-11-21T00:13:05;96032.53;;;9.48;66.05
10992;BME280;5549;47.028;15.514;2023-11-21T00:15:35;96040.75;;;9.34;67.25
10992;BME280;5549;47.028;15.514;2023-11-21T00:18:03;96038.84;;;9.46;66.86
10992;BME280;5549;47.028;15.514;2023-11-21T00:20:31;96030.59;;;9.50;66.30
10992;BME280;5549;47.028;15.514;2023-11-21T00:22:58;96026.75;;;9.54;65.55
10992;BME280;5549;47.028;15.514;2023-11-21T00:25:28;96033.34;;;9.49;65.85
10992;BME280;5549;47.028;15.514;2023-11-21T00:27:57;96032.25;;;9.51;65.74
10992;BME280;5549;47.028;15.514;2023-11-21T00:30:24;96027.56;;;9.55;65.50
10992;BME280;5549;47.028;15.514;2023-11-21T00:32:55;96036.13;;;9.57;65.32
10992;BME280;5549;47.028;15.514;2023-11-21T00:35:23;96046.59;;;9.57;65.39
10992;BME280;5549;47.028;15.514;2023-11-21T00:37:52;96054.03;;;9.52;66.46
10992;BME280;5549;47.028;15.514;2023-11-21T00:40:22;96048.38;;;9.47;67.14
10992;BME280;5549;47.028;15.514;2023-11-21T00:42:50;96051.19;;;9.15;68.75
10992;BME280;5549;47.028;15.514;2023-11-21T00:45:18;96050.16;;;9.37;67.56
10992;BME280;5549;47.028;15.514;2023-11-21T00:47:45;96052.19;;;9.23;67.58
10992;BME280;5549;47.028;15.514;2023-11-21T00:50:14;96053.56;;;9.27;66.90
10992;BME280;5549;47.028;15.514;2023-11-21T00:52:44;96057.31;;;9.35;66.93
10992;BME280;5549;47.028;15.514;2023-11-21T00:55:11;96055.91;;;9.21;68.15
10992;BME280;5549;47.028;15.514;2023-11-21T00:57:39;96060.06;;;9.33;67.38
10992;BME280;5549;47.028;15.514;2023-11-21T01:00:08;96056.78;;;9.41;67.09
10992;BME280;5549;47.028;15.514;2023-11-21T01:02:45;96048.22;;;9.39;67.07
10992;BME280;5549;47.028;15.514;2023-11-21T01:05:17;96044.94;;;9.06;68.51
10992;BME280;5549;47.028;15.514;2023-11-21T01:07:46;96041.22;;;9.09;68.42
10992;BME280;5549;47.028;15.514;2023-11-21T01:10:13;96034.03;;;9.01;68.63
10992;BME280;5549;47.028;15.514;2023-11-21T01:12:41;96034.78;;;9.13;68.25
10992;BME280;5549;47.028;15.514;2023-11-21T01:15:10;96034.34;;;9.08;68.68
10992;BME280;5549;47.028;15.514;2023-11-21T01:17:40;96034.47;;;9.06;68.76
10992;BME280;5549;47.028;15.514;2023-11-21T01:20:09;96036.81;;;9.09;68.78
10992;BME280;5549;47.028;15.514;2023-11-21T01:22:40;96035.59;;;9.13;68.24
10992;BME280;5549;47.028;15.514;2023-11-21T01:25:08;96024.97;;;9.05;67.68
10992;BME280;5549;47.028;15.514;2023-11-21T01:27:37;96017.34;;;8.92;66.99
10992;BME280;5549;47.028;15.514;2023-11-21T01:30:06;96012.28;;;9.10;66.60
10992;BME280;5549;47.028;15.514;2023-11-21T01:32:37;96003.50;;;9.21;66.75
10992;BME280;5549;47.028;15.514;2023-11-21T01:35:06;96001.56;;;9.23;67.19
10992;BME280;5549;47.028;15.514;2023-11-21T01:37:34;96000.31;;;9.17;66.49
10992;BME280;5549;47.028;15.514;2023-11-21T01:40:04;95995.22;;;9.25;65.41
10992;BME280;5549;47.028;15.514;2023-11-21T01:42:36;95996.50;;;9.31;65.26
10992;BME280;5549;47.028;15.514;2023-11-21T01:45:07;95997.19;;;9.43;65.26
10992;BME280;5549;47.028;15.514;2023-11-21T01:47:36;95998.53;;;9.27;65.01
10992;BME280;5549;47.028;15.514;2023-11-21T01:50:04;95998.28;;;9.30;64.43
10992;BME280;5549;47.028;15.514;2023-11-21T01:52:34;95994.72;;;9.51;63.45
10992;BME280;5549;47.028;15.514;2023-11-21T01:55:06;95993.63;;;9.44;62.93
10992;BME280;5549;47.028;15.514;2023-11-21T01:57:36;95991.56;;;9.57;62.43
10992;BME280;5549;47.028;15.514;2023-11-21T02:00:06;95991.97;;;9.62;62.36
10992;BME280;5549;47.028;15.514;2023-11-21T02:02:42;95989.38;;;9.72;62.13
10992;BME280;5549;47.028;15.514;2023-11-21T02:05:16;95984.81;;;9.64;62.57
10992;BME280;5549;47.028;15.514;2023-11-21T02:07:45;95991.41;;;9.58;62.75
10992;BME280;5549;47.028;15.514;2023-11-21T02:10:15;95985.63;;;9.74;62.47
10992;BME280;5549;47.028;15.514;2023-11-21T02:12:43;95981.78;;;9.69;62.79
10992;BME280;5549;47.028;15.514;2023-11-21T02:15:13;95976.53;;;9.69;63.53
10992;BME280;5549;47.028;15.514;2023-11-21T02:17:46;95990.28;;;9.42;63.96
10992;BME280;5549;47.028;15.514;2023-11-21T02:20:17;95993.06;;;9.40;64.54
10992;BME280;5549;47.028;15.514;2023-11-21T02:22:51;95979.28;;;9.67;63.68
10992;BME280;5549;47.028;15.514;2023-11-21T02:25:24;95992.22;;;9.40;64.75
10992;BME280;5549;47.028;15.514;2023-11-21T02:27:51;95985.91;;;9.61;63.77
10992;BME280;5549;47.028;15.514;2023-11-21T02:30:20;95988.78;;;9.49;63.75
10992;BME280;5549;47.028;15.514;2023-11-21T02:32:47;95982.72;;;9.58;62.99
10992;BME280;5549;47.028;15.514;2023-11-21T02:35:15;95988.66;;;9.50;63.75
10992;BME280;5549;47.028;15.514;2023-11-21T02:37:43;95984.53;;;9.77;63.38
10992;BME280;5549;47.028;15.514;2023-11-21T02:40:12;95976.25;;;9.81;63.22
10992;BME280;5549;47.028;15.514;2023-11-21T02:42:43;95982.03;;;9.56;62.29
10992;BME280;5549;47.028;15.514;2023-11-21T02:45:13;95978.47;;;9.76;62.30
10992;BME280;5549;47.028;15.514;2023-11-21T02:47:42;95976.25;;;9.81;62.11
10992;BME280;5549;47.028;15.514;2023-11-21T02:50:10;95979.00;;;9.89;62.19
10992;BME280;5549;47.028;15.514;2023-11-21T02:52:38;95975.56;;;9.98;61.74
10992;BME280;5549;47.028;15.514;2023-11-21T02:55:07;95977.75;;;10.03;61.89
10992;BME280;5549;47.028;15.514;2023-11-21T02:57:36;95967.41;;;10.02;61.47
10992;BME280;5549;47.028;15.514;2023-11-21T03:00:06;95969.47;;;10.08;61.03
10992;BME280;5549;47.028;15.514;2023-11-21T03:02:34;95966.84;;;10.08;61.71
10992;BME280;5549;47.028;15.514;2023-11-21T03:05:06;95968.22;;;10.21;61.94
10992;BME280;5549;47.028;15.514;2023-11-21T03:07:40;95969.59;;;10.35;61.68
10992;BME280;5549;47.028;15.514;2023-11-21T03:10:08;95972.22;;;10.35;61.05
10992;BME280;5549;47.028;15.514;2023-11-21T03:12:38;95972.91;;;10.37;61.56
10992;BME280;5549;47.028;15.514;2023-11-21T03:15:08;95973.84;;;10.36;60.83
10992;BME280;5549;47.028;15.514;2023-11-21T03:17:40;95978.03;;;10.29;60.92
10992;BME280;5549;47.028;15.514;2023-11-21T03:20:09;95983.00;;;10.32;61.84
10992;BME280;5549;47.028;15.514;2023-11-21T03:22:43;95989.47;;;10.47;60.82
10992;BME280;5549;47.028;15.514;2023-11-21T03:25:10;95990.84;;;10.51;61.08
10992;BME280;5549;47.028;15.514;2023-11-21T03:27:42;95996.22;;;10.59;60.31
10992;BME280;5549;47.028;15.514;2023-11-21T03:30:11;95994.53;;;10.68;60.50
10992;BME280;5549;47.028;15.514;2023-11-21T03:32:39;96003.06;;;10.80;59.72
10992;BME280;5549;47.028;15.514;2023-11-21T03:35:09;96001.00;;;10.74;59.88
10992;BME280;5549;47.028;15.514;2023-11-21T03:37:37;96003.78;;;10.72;61.07
10992;BME280;5549;47.028;15.514;2023-11-21T03:40:10;95997.97;;;10.69;61.20
10992;BME280;5549;47.028;15.514;2023-11-21T03:42:42;95996.91;;;10.62;61.78
10992;BME280;5549;47.028;15.514;2023-11-21T03:45:10;96003.91;;;10.71;61.68
10992;BME280;5549;47.028;15.514;2023-11-21T03:47:41;96005.47;;;10.64;64.00
10992;BME280;5549;47.028;15.514;2023-11-21T03:50:10;96010.59;;;10.55;64.05
10992;BME280;5549;47.028;15.514;2023-11-21T03:52:37;96006.31;;;10.54;63.47
10992;BME280;5549;47.028;15.514;2023-11-21T03:55:05;96016.56;;;10.48;63.39
10992;BME280;5549;47.028;15.514;2023-11-21T03:57:35;96015.72;;;10.47;63.82
10992;BME280;5549;47.028;15.514;2023-11-21T04:00:06;96013.66;;;10.12;65.03
10992;BME280;5549;47.028;15.514;2023-11-21T04:02:38;96017.38;;;10.10;65.10
10992;BME280;5549;47.028;15.514;2023-11-21T04:05:08;96022.75;;;10.18;64.80
10992;BME280;5549;47.028;15.514;2023-11-21T04:07:37;96020.81;;;10.10;65.08
10992;BME280;5549;47.028;15.514;2023-11-21T04:10:08;96020.41;;;10.15;65.31
10992;BME280;5549;47.028;15.514;2023-11-21T04:12:39;96017.78;;;10.15;64.34
10992;BME280;5549;47.028;15.514;2023-11-21T04:15:10;96029.91;;;9.58;68.65
10992;BME280;5549;47.028;15.514;2023-11-21T04:17:39;96027.03;;;9.90;67.44
10992;BME280;5549;47.028;15.514;2023-11-21T04:20:08;96028.16;;;9.97;67.29
10992;BME280;5549;47.028;15.514;2023-11-21T04:22:37;96020.69;;;10.02;67.00
10992;BME280;5549;47.028;15.514;2023-11-21T04:25:09;96022.63;;;10.10;66.06
10992;BME280;5549;47.028;15.514;2023-11-21T04:27:40;96034.50;;;10.14;65.05
10992;BME280;5549;47.028;15.514;2023-11-21T04:30:12;96022.06;;;10.16;65.70
10992;BME280;5549;47.028;15.514;2023-11-21T04:32:40;96016.81;;;10.16;65.15
10992;BME280;5549;47.028;15.514;2023-11-21T04:35:08;96011.56;;;10.16;65.49
10992;BME280;5549;47.028;15.514;2023-11-21T04:37:36;96003.69;;;10.16;65.79
10992;BME280;5549;47.028;15.514;2023-11-21T04:40:05;96003.56;;;10.17;65.62
10992;BME280;5549;47.028;15.514;2023-11-21T04:42:34;96002.06;;;10.24;65.82
10992;BME280;5549;47.028;15.514;2023-11-21T04:45:02;96000.53;;;10.22;65.54
10992;BME280;5549;47.028;15.514;2023-11-21T04:47:35;95997.91;;;10.22;66.01
10992;BME280;5549;47.028;15.514;2023-11-21T04:50:04;96008.56;;;10.20;65.77
10992;BME280;5549;47.028;15.514;2023-11-21T04:52:32;96005.78;;;10.22;66.04
10992;BME280;5549;47.028;15.514;2023-11-21T04:55:00;96003.69;;;10.16;66.50
10992;BME280;5549;47.028;15.514;2023-11-21T04:57:28;96006.88;;;10.19;65.92
10992;BME280;5549;47.028;15.514;2023-11-21T04:59:54;96012.69;;;10.23;65.75
10992;BME280;5549;47.028;15.514;2023-11-21T05:02:22;96016.56;;;10.28;65.66
10992;BME280;5549;47.028;15.514;2023-11-21T05:04:51;96020.97;;;10.28;66.21
10992;BME280;5549;47.028;15.514;2023-11-21T05:07:19;96028.44;;;10.33;66.17
10992;BME280;5549;47.028;15.514;2023-11-21T05:09:47;96025.38;;;10.37;65.80
10992;BME280;5549;47.028;15.514;2023-11-21T05:12:15;96024.28;;;10.40;65.90
10992;BME280;5549;47.028;15.514;2023-11-21T05:14:42;96026.50;;;10.44;65.60
10992;BME280;5549;47.028;15.514;2023-11-21T05:17:10;96029.13;;;10.44;65.84
10992;BME280;5549;47.028;15.514;2023-11-21T05:19:37;96029.81;;;10.46;65.35
10992;BME280;5549;47.028;15.514;2023-11-21T05:22:10;96034.78;;;10.49;65.71
10992;BME280;5549;47.028;15.514;2023-11-21T05:24:38;96036.59;;;10.49;66.32
10992;BME280;5549;47.028;15.514;2023-11-21T05:27:06;96032.84;;;10.51;65.99
10992;BME280;5549;47.028;15.514;2023-11-21T05:29:35;96040.72;;;10.51;66.26
10992;BME280;5549;47.028;15.514;2023-11-21T05:32:04;96041.97;;;10.47;66.59
10992;BME280;5549;47.028;15.514;2023-11-21T05:34:31;96037.00;;;10.44;68.23
10992;BME280;5549;47.028;15.514;2023-11-21T05:36:59;96037.28;;;10.41;67.64
10992;BME280;5549;47.028;15.514;2023-11-21T05:39:27;96041.13;;;10.37;68.43
10992;BME280;5549;47.028;15.514;2023-11-21T05:41:55;96043.34;;;10.32;69.13
10992;BME280;5549;47.028;15.514;2023-11-21T05:44:25;96047.50;;;10.25;69.62
10992;BME280;5549;47.028;15.514;2023-11-21T05:46:53;96045.69;;;10.16;69.45
10992;BME280;5549;47.028;15.514;2023-11-21T05:49:21;96047.06;;;10.10;69.60
10992;BME280;5549;47.028;15.514;2023-11-21T05:51:48;96048.84;;;10.10;70.11
10992;BME280;5549;47.028;15.514;2023-11-21T05:54:16;96058.66;;;9.98;70.61
10992;BME280;5549;47.028;15.514;2023-11-21T05:56:45;96067.34;;;9.98;70.15
10992;BME280;5549;47.028;15.514;2023-11-21T05:59:13;96061.84;;;10.02;70.66
10992;BME280;5549;47.028;15.514;2023-11-21T06:01:41;96063.78;;;10.00;70.73
10992;BME280;5549;47.028;15.514;2023-11-21T06:04:08;96059.91;;;9.84;71.18
10992;BME280;5549;47.028;15.514;2023-11-21T06:06:36;96080.44;;;9.79;71.64
10992;BME280;5549;47.028;15.514;2023-11-21T06:09:07;96086.94;;;9.85;71.37
10992;BME280;5549;47.028;15.514;2023-11-21T06:11:35;96092.63;;;9.90;71.31
10992;BME280;5549;47.028;15.514;2023-11-21T06:14:04;96083.78;;;9.91;70.50
10992;BME280;5549;47.028;15.514;2023-11-21T06:16:34;96098.84;;;9.98;70.51
10992;BME280;5549;47.028;15.514;2023-11-21T06:19:01;96088.06;;;10.02;70.98
10992;BME280;5549;47.028;15.514;2023-11-21T06:21:29;96087.63;;;9.87;71.52
10992;BME280;5549;47.028;15.514;2023-11-21T06:23:56;96090.53;;;9.84;72.10
10992;BME280;5549;47.028;15.514;2023-11-21T06:26:24;96092.47;;;9.91;72.03
10992;BME280;5549;47.028;15.514;2023-11-21T06:28:54;96096.22;;;9.98;70.82
10992;BME280;5549;47.028;15.514;2023-11-21T06:31:25;96096.91;;;10.01;71.30
10992;BME280;5549;47.028;15.514;2023-11-21T06:33:54;96084.34;;;9.94;71.08
10992;BME280;5549;47.028;15.514;2023-11-21T06:36:22;96085.81;;;9.68;72.85
10992;BME280;5549;47.028;15.514;2023-11-21T06:38:49;96087.22;;;9.82;72.10
10992;BME280;5549;47.028;15.514;2023-11-21T06:41:17;96092.06;;;9.86;72.56
10992;BME280;5549;47.028;15.514;2023-11-21T06:43:46;96096.34;;;9.87;73.27
10992;BME280;5549;47.028;15.514;2023-11-21T06:46:14;96090.25;;;9.87;73.23
10992;BME280;5549;47.028;15.514;2023-11-21T06:48:44;96096.06;;;9.90;73.05
10992;BME280;5549;47.028;15.514;2023-11-21T06:51:14;96098.13;;;9.96;72.82
10992;BME280;5549;47.028;15.514;2023-11-21T06:53:44;96095.25;;;10.00;72.55
10992;BME280;5549;47.028;15.514;2023-11-21T06:56:16;96105.88;;;9.98;72.60
10992;BME280;5549;47.028;15.514;2023-11-21T06:58:44;96112.66;;;10.01;72.85
10992;BME280;5549;47.028;15.514;2023-11-21T07:01:12;96106.28;;;10.03;72.67
10992;BME280;5549;47.028;15.514;2023-11-21T07:03:44;96110.44;;;10.06;72.98
10992;BME280;5549;47.028;15.514;2023-11-21T07:06:12;96111.72;;;10.21;73.71
10992;BME280;5549;47.028;15.514;2023-11-21T07:08:39;96105.53;;;10.60;79.50
10992;BME280;5549;47.028;15.514;2023-11-21T07:11:10;96110.28;;;10.94;80.51
10992;BME280;5549;47.028;15.514;2023-11-21T07:13:38;96109.81;;;11.18;80.45
10992;BME280;5549;47.028;15.514;2023-11-21T07:16:08;96112.75;;;11.42;79.37
10992;BME280;5549;47.028;15.514;2023-11-21T07:18:36;96111.56;;;11.64;77.81
10992;BME280;5549;47.028;15.514;2023-11-21T07:21:05;96115.91;;;11.83;76.12
10992;BME280;5549;47.028;15.514;2023-11-21T07:23:34;96116.91;;;12.00;74.24
10992;BME280;5549;47.028;15.514;2023-11-21T07:26:02;96108.56;;;12.04;72.23
10992;BME280;5549;47.028;15.514;2023-11-21T07:28:35;96109.31;;;11.97;70.80
10992;BME280;5549;47.028;15.514;2023-11-21T07:31:02;96111.59;;;11.54;70.95
10992;BME280;5549;47.028;15.514;2023-11-21T07:33:30;96114.47;;;11.34;71.58
10992;BME280;5549;47.028;15.514;2023-11-21T07:35:57;96108.81;;;11.29;71.49
10992;BME280;5549;47.028;15.514;2023-11-21T07:38:26;96113.91;;;11.30;71.67
10992;BME280;5549;47.028;15.514;2023-11-21T07:40:55;96116.03;;;11.54;71.12
10992;BME280;5549;47.028;15.514;2023-11-21T07:43:22;96116.88;;;11.82;71.41
10992;BME280;5549;47.028;15.514;2023-11-21T07:45:50;96117.00;;;12.08;71.01
10992;BME280;5549;47.028;15.514;2023-11-21T07:48:17;96107.19;;;12.28;71.40
10992;BME280;5549;47.028;15.514;2023-11-21T07:50:44;96107.03;;;12.47;71.01
10992;BME280;5549;47.028;15.514;2023-11-21T07:53:14;96106.03;;;12.66;70.62
10992;BME280;5549;47.028;15.514;2023-11-21T07:55:43;96104.19;;;12.84;69.90
10992;BME280;5549;47.028;15.514;2023-11-21T07:58:13;96107.31;;;13.05;69.26
10992;BME280;5549;47.028;15.514;2023-11-21T08:00:40;96102.47;;;13.19;68.26
10992;BME280;5549;47.028;15.514;2023-11-21T08:03:08;96103.63;;;12.98;67.41
10992;BME280;5549;47.028;15.514;2023-11-21T08:05:38;96099.75;;;12.84;66.07
10992;BME280;5549;47.028;15.514;2023-11-21T08:08:08;96104.47;;;12.37;67.70
10992;BME280;5549;47.028;15.514;2023-11-21T08:10:35;96103.75;;;12.00;69.73
10992;BME280;5549;47.028;15.514;2023-11-21T08:13:04;96109.16;;;11.98;70.48
10992;BME280;5549;47.028;15.514;2023-11-21T08:15:32;96103.06;;;11.98;69.96
10992;BME280;5549;47.028;15.514;2023-11-21T08:18:00;96106.09;;;12.03;70.69
10992;BME280;5549;47.028;15.514;2023-11-21T08:20:27;96101.81;;;12.02;70.24
10992;BME280;5549;47.028;15.514;2023-11-21T08:22:55;96107.75;;;12.04;69.82
10992;BME280;5549;47.028;15.514;2023-11-21T08:25:23;96107.44;;;12.07;70.13
10992;BME280;5549;47.028;15.514;2023-11-21T08:27:51;96098.56;;;12.08;70.30
10992;BME280;5549;47.028;15.514;2023-11-21T08:30:21;96101.59;;;12.13;69.50
10992;BME280;5549;47.028;15.514;2023-11-21T08:32:50;96097.22;;;12.04;70.52
10992;BME280;5549;47.028;15.514;2023-11-21T08:35:19;96109.66;;;11.56;71.36
10992;BME280;5549;47.028;15.514;2023-11-21T08:37:47;96097.81;;;11.43;73.35
10992;BME280;5549;47.028;15.514;2023-11-21T08:40:14;96097.00;;;11.42;73.35
10992;BME280;5549;47.028;15.514;2023-11-21T08:42:42;96095.63;;;11.66;72.96
10992;BME280;5549;47.028;15.514;2023-11-21T08:45:11;96101.28;;;11.71;72.91
10992;BME280;5549;47.028;15.514;2023-11-21T08:47:41;96095.31;;;11.78;72.67
10992;BME280;5549;47.028;15.514;2023-11-21T08:50:10;96093.75;;;11.21;76.58
10992;BME280;5549;47.028;15.514;2023-11-21T08:52:41;96103.47;;;11.48;74.83
10992;BME280;5549;47.028;15.514;2023-11-21T08:55:09;96102.88;;;11.54;73.91
10992;BME280;5549;47.028;15.514;2023-11-21T08:57:39;96110.63;;;11.55;73.23
10992;BME280;5549;47.028;15.514;2023-11-21T09:00:09;96102.19;;;11.52;72.96
10992;BME280;5549;47.028;15.514;2023-11-21T09:02:38;96098.63;;;11.43;73.17
10992;BME280;5549;47.028;15.514;2023-11-21T09:05:10;96099.28;;;11.55;72.81
10992;BME280;5549;47.028;15.514;2023-11-21T09:07:39;96099.75;;;11.41;74.28
10992;BME280;5549;47.028;15.514;2023-11-21T09:10:08;96096.13;;;11.51;73.63
10992;BME280;5549;47.028;15.514;2023-11-21T09:12:37;96095.88;;;11.45;74.55
10992;BME280;5549;47.028;15.514;2023-11-21T09:15:06;96094.69;;;11.57;73.75
10992;BME280;5549;47.028;15.514;2023-11-21T09:17:34;96097.44;;;11.65;73.67
10992;BME280;5549;47.028;15.514;2023-11-21T09:20:02;96095.53;;;11.57;73.35
10992;BME280;5549;47.028;15.514;2023-11-21T09:22:33;96096.88;;;11.62;72.34
10992;BME280;5549;47.028;15.514;2023-11-21T09:25:01;96091.63;;;11.62;74.02
10992;BME280;5549;47.028;15.514;2023-11-21T09:27:31;96092.84;;;11.40;73.00
10992;BME280;5549;47.028;15.514;2023-11-21T09:29:58;96096.53;;;11.19;73.86
10992;BME280;5549;47.028;15.514;2023-11-21T09:32:26;96086.19;;;11.45;72.63
10992;BME280;5549;47.028;15.514;2023-11-21T09:34:53;96092.84;;;11.67;70.90
10992;BME280;5549;47.028;15.514;2023-11-21T09:37:24;96102.69;;;11.65;71.64
10992;BME280;5549;47.028;15.514;2023-11-21T09:39:54;96095.16;;;11.80;70.25
10992;BME280;5549;47.028;15.514;2023-11-21T09:42:28;96093.16;;;11.92;70.59
10992;BME280;5549;47.028;15.514;2023-11-21T09:45:03;96093.81;;;11.94;70.47
10992;BME280;5549;47.028;15.514;2023-11-21T09:47:37;96081.19;;;11.97;69.25
10992;BME280;5549;47.028;15.514;2023-11-21T09:50:09;96084.66;;;11.98;69.86
10992;BME280;5549;47.028;15.514;2023-11-21T09:52:49;96087.19;;;11.89;69.25
10992;BME280;5549;47.028;15.514;2023-11-21T09:55:27;96091.25;;;11.84;67.70
10992;BME280;5549;47.028;15.514;2023-11-21T09:57:56;96087.97;;;11.72;68.84
10992;BME280;5549;47.028;15.514;2023-11-21T10:00:29;96082.53;;;11.83;69.77
10992;BME280;5549;47.028;15.514;2023-11-21T10:02:59;96083.53;;;11.73;70.78
10992;BME280;5549;47.028;15.514;2023-11-21T10:05:28;96086.59;;;11.68;71.78
10992;BME280;5549;47.028;15.514;2023-11-21T10:08:00;96087.25;;;11.52;73.58
10992;BME280;5549;47.028;15.514;2023-11-21T10:10:32;96077.94;;;11.58;72.17
10992;BME280;5549;47.028;15.514;2023-11-21T10:13:06;96080.88;;;11.55;73.11
10992;BME280;5549;47.028;15.514;2023-11-21T10:15:34;96074.78;;;11.54;72.81
10992;BME280;5549;47.028;15.514;2023-11-21T10:18:06;96070.44;;;11.63;71.72
10992;BME280;5549;47.028;15.514;2023-11-21T10:20:35;96077.75;;;11.42;71.76
10992;BME280;5549;47.028;15.514;2023-11-21T10:23:04;96075.63;;;11.55;71.67
10992;BME280;5549;47.028;15.514;2023-11-21T10:25:34;96083.31;;;11.66;71.33
10992;BME280;5549;47.028;15.514;2023-11-21T10:28:03;96078.44;;;11.44;72.15
10992;BME280;5549;47.028;15.514;2023-11-21T10:30:36;96076.19;;;11.49;72.16
10992;BME280;5549;47.028;15.514;2023-11-21T10:33:05;96085.50;;;11.43;72.53
10992;BME280;5549;47.028;15.514;2023-11-21T10:35:43;96086.91;;;11.38;73.04
10992;BME280;5549;47.028;15.514;2023-11-21T10:38:15;96078.25;;;11.55;72.74
10992;BME280;5549;47.028;15.514;2023-11-21T10:40:44;96078.03;;;11.66;72.08
10992;BME280;5549;47.028;15.514;2023-11-21T10:43:13;96069.81;;;11.51;72.33
10992;BME280;5549;47.028;15.514;2023-11-21T10:45:42;96067.81;;;11.63;71.49
10992;BME280;5549;47.028;15.514;2023-11-21T10:48:12;96068.88;;;11.70;72.32
10992;BME280;5549;47.028;15.514;2023-11-21T10:50:42;96064.97;;;11.74;71.49
10992;BME280;5549;47.028;15.514;2023-11-21T10:53:10;96067.72;;;11.82;71.83
10992;BME280;5549;47.028;15.514;2023-11-21T10:55:39;96068.09;;;11.87;71.48
10992;BME280;5549;47.028;15.514;2023-11-21T10:58:08;96067.44;;;11.85;72.08
10992;BME280;5549;47.028;15.514;2023-11-21T11:00:38;96064.88;;;11.94;71.79
10992;BME280;5549;47.028;15.514;2023-11-21T11:03:06;96064.06;;;11.93;70.67
10992;BME280;5549;47.028;15.514;2023-11-21T11:05:41;96059.91;;;11.91;68.45
10992;BME280;5549;47.028;15.514;2023-11-21T11:08:17;96064.56;;;11.79;69.86
10992;BME280;5549;47.028;15.514;2023-11-21T11:10:46;96059.03;;;11.72;70.87
10992;BME280;5549;47.028;15.514;2023-11-21T11:13:15;96059.72;;;11.74;71.00
10992;BME280;5549;47.028;15.514;2023-11-21T11:15:47;96067.13;;;11.88;70.23
10992;BME280;5549;47.028;15.514;2023-11-21T11:18:16;96060.97;;;11.98;70.04
10992;BME280;5549;47.028;15.514;2023-11-21T11:20:45;96059.38;;;11.87;69.99
10992;BME280;5549;47.028;15.514;2023-11-21T11:23:59;96058.78;;;11.93;70.12
10992;BME280;5549;47.028;15.514;2023-11-21T11:26:45;96063.00;;;11.86;70.36
10992;BME280;5549;47.028;15.514;2023-11-21T11:29:29;96068.34;;;11.94;69.52
10992;BME280;5549;47.028;15.514;2023-11-21T11:32:12;96072.84;;;12.02;69.47
10992;BME280;5549;47.028;15.514;2023-11-21T11:34:48;96067.00;;;12.08;69.07
10992;BME280;5549;47.028;15.514;2023-11-21T11:37:19;96055.63;;;11.89;70.60
10992;BME280;5549;47.028;15.514;2023-11-21T11:39:47;96049.16;;;12.02;69.35
10992;BME280;5549;47.028;15.514;2023-11-21T11:42:17;96048.88;;;12.05;69.33
10992;BME280;5549;47.028;15.514;2023-11-21T11:44:51;96051.81;;;12.02;69.25
10992;BME280;5549;47.028;15.514;2023-11-21T11:47:23;96046.25;;;12.05;69.78
10992;BME280;5549;47.028;15.514;2023-11-21T11:50:03;96057.97;;;11.93;70.70
10992;BME280;5549;47.028;15.514;2023-11-21T11:52:43;96047.75;;;11.89;70.81
10992;BME280;5549;47.028;15.514;2023-11-21T11:55:12;96056.31;;;11.92;71.32
10992;BME280;5549;47.028;15.514;2023-11-21T11:57:43;96046.38;;;11.85;71.48
10992;BME280;5549;47.028;15.514;2023-11-21T12:00:18;96050.66;;;11.86;72.29
10992;BME280;5549;47.028;15.514;2023-11-21T12:02:51;96050.13;;;11.83;71.58
10992;BME280;5549;47.028;15.514;2023-11-21T12:05:20;96045.25;;;11.88;72.04
10992;BME280;5549;47.028;15.514;2023-11-21T12:07:51;96040.91;;;11.97;71.48
10992;BME280;5549;47.028;15.514;2023-11-21T12:10:21;96049.25;;;11.92;71.59
10992;BME280;5549;47.028;15.514;2023-11-21T12:12:52;96050.44;;;11.98;70.77
10992;BME280;5549;47.028;15.514;2023-11-21T12:15:22;96047.88;;;12.06;70.71
10992;BME280;5549;47.028;15.514;2023-11-21T12:17:50;96053.22;;;11.96;71.72
10992;BME280;5549;47.028;15.514;2023-11-21T12:20:20;96050.81;;;11.85;70.76
10992;BME280;5549;47.028;15.514;2023-11-21T12:22:49;96043.25;;;11.72;70.92
10992;BME280;5549;47.028;15.514;2023-11-21T12:25:18;96037.13;;;11.99;70.84
10992;BME280;5549;47.028;15.514;2023-11-21T12:27:46;96040.00;;;12.06;70.80
10992;BME280;5549;47.028;15.514;2023-11-21T12:30:17;96036.22;;;12.08;70.18
10992;BME280;5549;47.028;15.514;2023-11-21T12:32:49;96035.34;;;12.00;70.00
10992;BME280;5549;47.028;15.514;2023-11-21T12:35:19;96029.03;;;11.93;69.99
10992;BME280;5549;47.028;15.514;2023-11-21T12:37:48;96025.41;;;11.94;70.17
10992;BME280;5549;47.028;15.514;2023-11-21T12:40:15;96021.03;;;12.02;69.46
10992;BME280;5549;47.028;15.514;2023-11-21T12:42:46;96024.44;;;11.95;70.29
10992;BME280;5549;47.028;15.514;2023-11-21T12:45:22;96028.03;;;11.94;71.04
10992;BME280;5549;47.028;15.514;2023-11-21T12:47:55;96029.41;;;11.98;71.47
10992;BME280;5549;47.028;15.514;2023-11-21T12:50:24;96017.50;;;11.94;71.29
10992;BME280;5549;47.028;15.514;2023-11-21T12:52:59;96023.47;;;11.96;70.47
10992;BME280;5549;47.028;15.514;2023-11-21T12:55:30;96018.19;;;11.96;70.77
10992;BME280;5549;47.028;15.514;2023-11-21T12:58:01;96014.34;;;12.08;71.12
10992;BME280;5549;47.028;15.514;2023-11-21T13:00:36;96011.94;;;11.97;71.60
10992;BME280;5549;47.028;15.514;2023-11-21T13:03:07;96006.69;;;11.97;71.65
10992;BME280;5549;47.028;15.514;2023-11-21T13:05:38;96005.25;;;12.02;70.71
10992;BME280;5549;47.028;15.514;2023-11-21T13:08:09;95998.41;;;11.92;71.33
10992;BME280;5549;47.028;15.514;2023-11-21T13:10:40;96001.81;;;12.02;71.62
10992;BME280;5549;47.028;15.514;2023-11-21T13:13:11;96003.53;;;11.93;71.87
10992;BME280;5549;47.028;15.514;2023-11-21T13:15:48;96002.63;;;11.84;71.60